Time;durP1;ratioP1;P1;durP2;ratioP2;P2;SDS_P1;SDS_P2;PMS_P1;PMS_P2;Temp;Humidity;BMP_temperature;BMP_pressure;BME280_temperature;BME280_humidity;BME280_pressure;Samples;Min_cycle;Max_cycle;Signal;HPM_P1;HPM_P2
2022/07/08 00:03:14;;;;;;;1.08;0.65;;;24.30;66.10;;;;;;10941712;32;20065;-74
2022/07/08 00:09:16;;;;;;;0.50;0.50;;;24.20;66.30;;;;;;10937369;32;20030;-74
2022/07/08 00:15:20;;;;;;;0.60;0.50;;;24.00;66.70;;;;;;10941571;32;20019;-74
2022/07/08 00:22:00;;;;;;;1.05;0.80;;;24.10;66.60;;;;;;10927866;32;20045;-73
2022/07/08 00:28:02;;;;;;;1.52;0.85;;;24.00;66.70;;;;;;10941335;32;20042;-74
2022/07/08 00:34:04;;;;;;;1.65;1.08;;;24.00;66.70;;;;;;10941301;32;20334;-74
2022/07/08 00:40:22;;;;;;;0.80;0.60;;;24.10;66.30;;;;;;10929846;32;20042;-74
2022/07/08 00:46:24;;;;;;;2.00;1.00;;;24.00;66.60;;;;;;10948207;32;20027;-74
2022/07/08 00:52:26;;;;;;;1.27;1.00;;;23.80;66.70;;;;;;10948136;32;20414;-74
2022/07/08 00:58:30;;;;;;;3.58;1.05;;;23.90;66.90;;;;;;10947850;32;20040;-74
2022/07/08 01:04:35;;;;;;;1.48;0.95;;;23.80;66.90;;;;;;10947628;32;20042;-73
2022/07/08 01:10:37;;;;;;;1.77;1.17;;;23.80;66.80;;;;;;10933871;32;20022;-74
2022/07/08 01:16:39;;;;;;;2.08;1.35;;;23.60;67.00;;;;;;10947210;32;20335;-74
2022/07/08 01:22:42;;;;;;;2.08;1.30;;;23.50;67.30;;;;;;10947146;32;20104;-73
2022/07/08 01:28:44;;;;;;;1.02;0.93;;;23.60;67.20;;;;;;10942538;32;20335;-74
2022/07/08 01:35:16;;;;;;;1.25;1.10;;;23.50;67.30;;;;;;10935989;32;20046;-74
2022/07/08 01:41:18;;;;;;;2.20;1.30;;;23.40;67.40;;;;;;10946323;32;20038;-73
2022/07/08 01:47:21;;;;;;;1.50;1.00;;;23.50;67.30;;;;;;10946032;32;20050;-74
2022/07/08 01:53:23;;;;;;;2.00;1.27;;;23.50;67.10;;;;;;10945116;32;20023;-74
2022/07/08 01:59:25;;;;;;;1.37;1.20;;;23.60;66.90;;;;;;10945677;32;20022;-74
2022/07/08 02:05:27;;;;;;;1.98;1.55;;;23.60;66.80;;;;;;10945404;32;20023;-74
2022/07/08 02:17:50;;;;;;;2.08;1.35;;;23.50;67.00;;;;;;10945153;32;20039;-74
2022/07/08 02:23:52;;;;;;;1.80;1.45;;;23.50;66.90;;;;;;10944789;32;20323;-73
2022/07/08 02:29:55;;;;;;;4.40;2.22;;;23.40;66.90;;;;;;10941945;32;20395;-74
2022/07/08 02:36:21;;;;;;;3.80;2.62;;;23.30;67.30;;;;;;10944426;32;20347;-73
2022/07/08 02:42:24;;;;;;;3.65;2.33;;;23.30;67.20;;;;;;10944102;32;20031;-74
2022/07/08 02:48:26;;;;;;;9.05;2.83;;;23.30;67.30;;;;;;10944028;32;20391;-74
2022/07/08 02:54:28;;;;;;;4.15;2.62;;;23.30;67.30;;;;;;10943708;32;20024;-74
2022/07/08 03:00:30;;;;;;;5.10;3.25;;;23.20;67.30;;;;;;10943623;32;20049;-73
2022/07/08 03:06:32;;;;;;;4.68;3.25;;;23.10;67.40;;;;;;10943136;32;20041;-73
2022/07/08 03:12:34;;;;;;;4.82;3.28;;;23.20;67.40;;;;;;10942964;32;20053;-73
2022/07/08 03:18:37;;;;;;;3.97;2.87;;;23.00;67.50;;;;;;10942975;32;20285;-73
2022/07/08 03:24:39;;;;;;;2.40;1.60;;;22.90;67.70;;;;;;10942536;32;20053;-74
2022/07/08 03:30:41;;;;;;;3.70;2.45;;;22.90;67.80;;;;;;10939922;32;20054;-74
2022/07/08 03:36:57;;;;;;;3.75;2.78;;;23.00;67.80;;;;;;10942367;32;20026;-74
2022/07/08 03:43:00;;;;;;;3.22;2.45;;;22.80;67.80;;;;;;10942067;32;20023;-74
2022/07/08 03:49:02;;;;;;;4.57;3.17;;;22.80;68.00;;;;;;10942197;32;20050;-73
2022/07/08 03:55:05;;;;;;;3.00;2.58;;;22.80;68.00;;;;;;10928505;32;20402;-74
2022/07/08 04:01:10;;;;;;;3.58;2.20;;;22.90;67.70;;;;;;10941804;32;20023;-73
2022/07/08 04:07:15;;;;;;;3.33;2.43;;;22.80;67.60;;;;;;10941754;32;20392;-73
2022/07/08 04:13:17;;;;;;;3.70;2.50;;;22.80;67.80;;;;;;10941577;32;20315;-73
2022/07/08 04:19:19;;;;;;;3.10;2.20;;;22.80;67.80;;;;;;10948908;32;20145;-74
2022/07/08 04:25:21;;;;;;;3.78;2.30;;;22.70;67.90;;;;;;10948912;32;20058;-73
2022/07/08 04:31:23;;;;;;;5.07;2.58;;;22.70;67.80;;;;;;11002995;27;20042;-73
2022/07/08 04:37:26;;;;;;;4.72;2.55;;;22.70;67.70;;;;;;11024449;32;20048;-73
2022/07/08 04:43:28;;;;;;;4.07;2.58;;;22.60;67.80;;;;;;11024014;32;20053;-73
2022/07/08 04:49:30;;;;;;;3.65;2.67;;;22.50;68.00;;;;;;11023779;32;20029;-73
2022/07/08 04:55:32;;;;;;;3.67;2.67;;;22.50;68.00;;;;;;11023658;32;20050;-74
2022/07/08 05:01:34;;;;;;;5.70;3.30;;;22.40;68.00;;;;;;11023488;32;20044;-73
2022/07/08 05:07:36;;;;;;;3.90;2.85;;;22.50;68.00;;;;;;11023247;32;20049;-73
2022/07/08 05:13:38;;;;;;;3.53;2.95;;;22.70;67.70;;;;;;11009531;32;20018;-73
2022/07/08 05:19:41;;;;;;;2.47;2.05;;;22.80;67.60;;;;;;11022948;32;20091;-73
2022/07/08 05:26:05;;;;;;;3.00;1.90;;;22.90;67.30;;;;;;11022086;32;20076;-74
2022/07/08 05:32:07;;;;;;;3.78;2.67;;;23.00;67.20;;;;;;11022340;32;20026;-74
2022/07/08 05:38:09;;;;;;;3.12;1.95;;;23.10;67.30;;;;;;10985678;32;20032;-73
2022/07/08 05:44:11;;;;;;;2.17;1.45;;;23.30;67.00;;;;;;10979390;32;20053;-74
2022/07/08 05:50:13;;;;;;;1.25;1.15;;;23.40;66.80;;;;;;10983517;32;20077;-73
2022/07/08 05:56:15;;;;;;;1.75;1.20;;;23.50;66.60;;;;;;10983487;32;20354;-74
2022/07/08 06:02:18;;;;;;;1.42;1.20;;;23.70;66.30;;;;;;10983242;32;20061;-74
2022/07/08 06:08:20;;;;;;;1.73;1.00;;;23.80;66.00;;;;;;10982926;32;20022;-74
2022/07/08 06:14:22;;;;;;;2.40;1.50;;;24.00;65.80;;;;;;10982685;32;20049;-75
2022/07/08 06:20:24;;;;;;;3.53;2.37;;;24.20;65.60;;;;;;10983582;32;20377;-72
2022/07/08 06:26:28;;;;;;;3.33;2.12;;;24.10;65.30;;;;;;10988071;32;20347;-74
2022/07/08 06:32:31;;;;;;;2.05;1.62;;;24.10;65.10;;;;;;11007396;32;20030;-75
2022/07/08 06:38:32;;;;;;;2.05;1.40;;;24.30;65.00;;;;;;11016657;32;20061;-74
2022/07/08 06:44:34;;;;;;;1.70;1.10;;;24.30;64.60;;;;;;11019122;32;20030;-74
2022/07/08 06:50:37;;;;;;;1.05;0.95;;;24.40;64.50;;;;;;11018912;32;20018;-74
2022/07/08 06:56:39;;;;;;;2.72;1.15;;;24.50;64.40;;;;;;11018623;32;20027;-75
2022/07/08 07:02:41;;;;;;;1.23;1.12;;;24.70;64.20;;;;;;11011608;32;20033;-75
2022/07/08 07:08:44;;;;;;;1.92;1.08;;;24.90;63.90;;;;;;11018245;32;20070;-74
2022/07/08 07:14:45;;;;;;;1.55;1.08;;;25.00;63.80;;;;;;11017979;32;20051;-75
2022/07/08 07:20:49;;;;;;;0.98;0.80;;;25.10;63.60;;;;;;11018008;32;20210;-75
2022/07/08 07:26:51;;;;;;;4.10;1.33;;;25.10;63.30;;;;;;11017467;32;20428;-75
2022/07/08 07:32:53;;;;;;;1.98;0.57;;;25.20;63.30;;;;;;11017601;32;20069;-75
2022/07/08 07:39:16;;;;;;;3.60;0.90;;;25.30;63.00;;;;;;11017323;32;20035;-76
2022/07/08 07:45:18;;;;;;;0.77;0.62;;;25.30;62.80;;;;;;11017237;32;20026;-75
2022/07/08 07:51:21;;;;;;;1.37;0.65;;;25.50;62.60;;;;;;11016456;32;20041;-75
2022/07/08 07:57:23;;;;;;;0.37;0.30;;;25.60;62.40;;;;;;11004910;32;20393;-73
2022/07/08 08:03:45;;;;;;;0.55;0.50;;;25.70;61.90;;;;;;10978538;32;20026;-75
2022/07/08 08:09:47;;;;;;;1.42;0.85;;;25.70;61.40;;;;;;10978698;32;20020;-74
2022/07/08 08:15:49;;;;;;;3.28;1.15;;;25.80;61.10;;;;;;10960984;32;20339;-74
2022/07/08 08:21:51;;;;;;;1.58;0.82;;;25.80;61.00;;;;;;10978830;32;20049;-75
2022/07/08 08:27:54;;;;;;;2.12;0.93;;;26.00;60.70;;;;;;10978555;32;20066;-74
2022/07/08 08:33:56;;;;;;;4.37;1.17;;;26.00;59.80;;;;;;10978278;32;20085;-76
2022/07/08 08:40:06;;;;;;;0.73;0.50;;;26.20;59.90;;;;;;10964664;32;20052;-72
2022/07/08 08:46:11;;;;;;;0.43;0.43;;;26.30;59.10;;;;;;10976669;32;20027;-74
2022/07/08 08:52:19;;;;;;;0.60;0.60;;;26.30;58.90;;;;;;10978158;32;20027;-76
2022/07/08 08:58:21;;;;;;;1.48;0.98;;;26.40;58.40;;;;;;10977936;32;20015;-73
2022/07/08 09:04:24;;;;;;;0.40;0.40;;;26.60;58.20;;;;;;10983321;32;20069;-74
2022/07/08 09:10:26;;;;;;;2.80;0.90;;;26.80;57.70;;;;;;10980163;32;20046;-73
2022/07/08 09:16:28;;;;;;;1.08;0.80;;;26.90;57.00;;;;;;10984011;32;20064;-75
2022/07/08 09:22:30;;;;;;;0.90;0.70;;;26.90;56.30;;;;;;10984212;32;20027;-75
2022/07/08 09:28:34;;;;;;;1.92;0.90;;;27.00;56.50;;;;;;10984280;32;20030;-74
2022/07/08 09:34:37;;;;;;;3.10;1.45;;;27.20;55.80;;;;;;10983970;32;20403;-75
2022/07/08 09:40:39;;;;;;;5.57;1.55;;;27.30;55.00;;;;;;10983505;32;20065;-74
2022/07/08 09:47:00;;;;;;;0.65;0.60;;;27.50;54.20;;;;;;10982700;32;20050;-74
2022/07/08 09:53:11;;;;;;;0.88;0.68;;;27.30;52.80;;;;;;10983206;32;20030;-74
2022/07/08 09:59:13;;;;;;;0.65;0.65;;;27.60;52.40;;;;;;10983112;32;20080;-73
2022/07/08 10:05:16;;;;;;;2.42;1.48;;;27.60;52.40;;;;;;10982909;32;20323;-73
2022/07/08 10:11:19;;;;;;;1.10;0.50;;;27.90;52.40;;;;;;10981872;32;20337;-75
2022/07/08 10:17:22;;;;;;;0.57;0.57;;;28.00;51.90;;;;;;10977796;32;20049;-74
2022/07/08 10:23:32;;;;;;;1.27;0.70;;;28.30;51.70;;;;;;10982213;32;20334;-75
2022/07/08 10:29:43;;;;;;;0.40;0.40;;;28.50;50.90;;;;;;10981992;32;20045;-73
2022/07/08 10:36:03;;;;;;;1.60;0.88;;;28.70;50.90;;;;;;10981921;32;20046;-75
2022/07/08 10:42:07;;;;;;;1.05;0.77;;;28.80;50.30;;;;;;10983459;32;20056;-75
2022/07/08 10:48:09;;;;;;;0.68;0.68;;;28.90;49.90;;;;;;11019425;32;20035;-75
2022/07/08 10:54:39;;;;;;;0.82;0.40;;;29.00;49.80;;;;;;11016604;32;20034;-73
2022/07/08 11:00:41;;;;;;;1.23;0.90;;;29.10;48.70;;;;;;11003593;32;20030;-75
2022/07/08 11:06:55;;;;;;;0.82;0.77;;;29.30;48.70;;;;;;11018882;32;20069;-75
2022/07/08 11:12:58;;;;;;;1.25;0.95;;;29.60;48.00;;;;;;11005002;32;20049;-73
2022/07/08 11:19:00;;;;;;;0.73;0.47;;;29.90;47.70;;;;;;11018139;32;20343;-76
2022/07/08 11:25:03;;;;;;;1.98;0.82;;;30.20;47.20;;;;;;11018156;32;20406;-74
2022/07/08 11:31:26;;;;;;;0.80;0.70;;;30.50;47.10;;;;;;10535531;32;14226119;-75
2022/07/08 11:37:32;;;;;;;0.93;0.70;;;30.70;46.70;;;;;;10939487;32;20034;-74
2022/07/08 11:43:34;;;;;;;0.90;0.65;;;30.70;46.30;;;;;;10926084;32;20081;-74
2022/07/08 11:49:43;;;;;;;1.45;0.90;;;30.90;45.50;;;;;;10938790;32;20053;-73
2022/07/08 11:55:46;;;;;;;0.57;0.57;;;30.90;45.70;;;;;;10953970;32;20034;-75
2022/07/08 12:01:53;;;;;;;1.85;0.50;;;31.10;45.30;;;;;;10979335;32;20068;-74
2022/07/08 12:07:55;;;;;;;0.82;0.73;;;31.30;44.30;;;;;;10979302;32;20057;-74
2022/07/08 12:13:57;;;;;;;0.95;0.77;;;31.40;43.90;;;;;;10965924;32;20586;-76
2022/07/08 12:19:59;;;;;;;1.15;0.60;;;31.70;43.60;;;;;;10979068;32;20049;-74
2022/07/08 12:26:06;;;;;;;0.88;0.60;;;31.70;43.30;;;;;;10978917;32;20049;-73
2022/07/08 12:32:10;;;;;;;0.75;0.60;;;31.70;43.10;;;;;;10979672;27;20034;-75
2022/07/08 12:38:12;;;;;;;1.83;1.05;;;31.80;43.30;;;;;;10983613;32;20296;-75
2022/07/08 12:44:41;;;;;;;2.85;0.95;;;31.80;43.20;;;;;;10972795;32;20395;-75
2022/07/08 12:50:43;;;;;;;0.80;0.80;;;31.70;43.70;;;;;;10985918;32;20481;-75
2022/07/08 12:56:45;;;;;;;0.85;0.50;;;31.90;43.30;;;;;;10981375;32;20053;-75
2022/07/08 13:02:48;;;;;;;0.50;0.50;;;32.00;42.90;;;;;;10985223;32;20326;-75
2022/07/08 13:08:50;;;;;;;1.58;1.02;;;32.00;43.10;;;;;;10985013;32;20022;-74
2022/07/08 13:14:52;;;;;;;1.02;0.65;;;32.00;43.10;;;;;;10984990;32;20026;-74
2022/07/08 13:20:54;;;;;;;0.43;0.43;;;31.90;43.00;;;;;;10980334;32;20022;-75
2022/07/08 13:26:56;;;;;;;1.25;0.70;;;31.80;43.20;;;;;;10984386;32;20053;-75
2022/07/08 13:32:58;;;;;;;2.47;0.70;;;31.80;43.70;;;;;;10970847;32;20057;-75
2022/07/08 13:39:01;;;;;;;3.95;0.50;;;31.70;43.50;;;;;;10984096;32;20019;-73
2022/07/08 13:45:05;;;;;;;0.50;0.50;;;31.80;43.20;;;;;;10980040;32;20066;-75
2022/07/08 13:51:08;;;;;;;0.52;0.47;;;31.90;43.00;;;;;;10976958;32;20440;-73
2022/07/08 13:57:10;;;;;;;1.27;0.68;;;31.80;43.10;;;;;;10970127;32;20057;-74
2022/07/08 14:03:12;;;;;;;2.60;0.75;;;31.90;43.10;;;;;;10979070;32;20094;-76
2022/07/08 14:09:15;;;;;;;1.48;0.77;;;32.00;43.00;;;;;;10983116;32;20010;-75
2022/07/08 14:15:17;;;;;;;2.05;0.57;;;32.00;42.80;;;;;;10982934;32;20086;-75
2022/07/08 14:21:19;;;;;;;0.50;0.50;;;32.00;42.00;;;;;;10969689;32;20042;-75
2022/07/08 14:27:21;;;;;;;2.10;0.65;;;31.80;41.60;;;;;;10982165;32;20347;-74
2022/07/08 14:33:23;;;;;;;0.40;0.40;;;31.60;42.30;;;;;;10977693;32;20046;-76
2022/07/08 14:39:26;;;;;;;0.70;0.47;;;31.70;41.90;;;;;;10965713;32;20026;-75
2022/07/08 14:45:28;;;;;;;0.73;0.50;;;31.50;41.90;;;;;;10982392;32;20425;-74
2022/07/08 14:51:30;;;;;;;0.55;0.30;;;31.30;42.20;;;;;;10982346;32;20023;-75
2022/07/08 14:57:33;;;;;;;1.15;0.50;;;31.40;41.90;;;;;;10982097;32;20014;-76
2022/07/08 15:03:35;;;;;;;0.52;0.45;;;31.50;41.20;;;;;;10982178;32;20031;-74
2022/07/08 15:09:37;;;;;;;0.20;0.20;;;31.60;40.80;;;;;;10981720;32;20034;-73
2022/07/08 15:15:40;;;;;;;1.00;0.50;;;31.70;40.60;;;;;;10968504;32;20343;-75
2022/07/08 15:21:42;;;;;;;0.73;0.70;;;31.70;40.30;;;;;;10980936;32;20038;-73
2022/07/08 15:27:44;;;;;;;0.37;0.37;;;31.80;40.10;;;;;;10975806;32;20390;-74
2022/07/08 15:33:46;;;;;;;0.30;0.30;;;31.60;40.30;;;;;;10942428;32;20069;-74
2022/07/08 15:39:48;;;;;;;0.30;0.30;;;31.70;40.20;;;;;;10942431;32;20426;-75
2022/07/08 15:45:51;;;;;;;1.05;0.52;;;31.60;40.10;;;;;;10942064;32;20027;-75
2022/07/08 15:51:53;;;;;;;0.22;0.22;;;31.70;39.60;;;;;;10928498;32;20031;-75
2022/07/08 15:57:55;;;;;;;0.52;0.52;;;31.80;39.70;;;;;;10941806;32;20051;-74
2022/07/08 16:03:58;;;;;;;0.70;0.45;;;31.90;39.60;;;;;;10950772;32;20425;-73
2022/07/08 16:10:00;;;;;;;0.85;0.40;;;31.90;39.30;;;;;;10976410;32;20429;-74
2022/07/08 16:16:03;;;;;;;1.02;0.32;;;32.10;39.40;;;;;;10949438;32;20045;-75
2022/07/08 16:22:05;;;;;;;0.13;0.13;;;32.00;39.50;;;;;;10949051;32;20050;-74
2022/07/08 16:28:07;;;;;;;0.30;0.20;;;32.10;39.40;;;;;;10935357;32;20035;-76
2022/07/08 16:34:29;;;;;;;0.73;0.68;;;32.20;39.50;;;;;;10948683;32;20030;-75
2022/07/08 16:40:32;;;;;;;0.10;0.10;;;32.20;39.40;;;;;;10948535;32;20010;-74
2022/07/08 16:46:37;;;;;;;1.58;0.60;;;32.10;39.70;;;;;;10948056;32;20454;-75
2022/07/08 16:52:39;;;;;;;1.10;0.50;;;32.20;39.80;;;;;;10947849;32;20031;-75
2022/07/08 16:58:42;;;;;;;1.17;0.65;;;32.30;39.80;;;;;;10946280;32;20019;-70
2022/07/08 17:04:44;;;;;;;0.60;0.40;;;32.30;39.60;;;;;;10943116;32;20058;-69
2022/07/08 17:10:46;;;;;;;2.87;0.60;;;32.30;39.70;;;;;;10943192;32;20018;-70
2022/07/08 17:16:50;;;;;;;0.50;0.40;;;32.30;39.90;;;;;;10942819;32;20312;-71
2022/07/08 17:22:52;;;;;;;0.20;0.20;;;32.30;39.90;;;;;;10942378;32;20023;-71
2022/07/08 17:29:47;;;;;;;0.30;0.30;;;32.30;40.10;;;;;;10965595;32;20441;-70
2022/07/08 17:35:17;;;;;;;0.57;0.30;;;32.30;40.30;;;;;;10979712;32;20023;-71
2022/07/08 17:41:21;;;;;;;0.30;0.30;;;32.20;40.70;;;;;;10971638;32;20446;-71
2022/07/08 17:47:23;;;;;;;0.32;0.32;;;32.10;41.00;;;;;;10928090;32;20053;-71
2022/07/08 17:53:26;;;;;;;0.45;0.20;;;32.20;40.80;;;;;;10941788;32;20023;-70
2022/07/08 17:59:29;;;;;;;1.90;0.57;;;33.30;39.30;;;;;;10941675;32;20045;-71
2022/07/08 18:05:34;;;;;;;2.92;0.32;;;34.40;37.90;;;;;;10961511;32;20084;-70
2022/07/08 18:11:39;;;;;;;0.30;0.30;;;34.30;38.20;;;;;;10965345;32;20053;-70
2022/07/08 18:17:41;;;;;;;0.32;0.30;;;33.20;39.90;;;;;;10965111;32;20057;-71
2022/07/08 18:23:43;;;;;;;2.60;0.30;;;32.40;41.30;;;;;;10978327;32;20046;-71
2022/07/08 18:29:45;;;;;;;0.10;0.10;;;31.90;42.40;;;;;;10978082;32;20022;-70
2022/07/08 18:35:47;;;;;;;0.35;0.30;;;31.50;42.90;;;;;;10963773;32;20046;-70
2022/07/08 18:41:50;;;;;;;0.65;0.40;;;31.30;43.50;;;;;;10977846;32;20018;-70
2022/07/08 18:47:59;;;;;;;0.40;0.40;;;30.90;44.30;;;;;;10977185;32;20022;-70
2022/07/08 18:54:01;;;;;;;1.42;0.60;;;30.70;45.10;;;;;;10977094;32;20022;-70
2022/07/08 19:00:05;;;;;;;0.90;0.40;;;30.50;45.30;;;;;;10977127;32;20421;-70
2022/07/08 19:06:07;;;;;;;1.48;0.30;;;30.30;45.40;;;;;;10963242;32;20011;-70
2022/07/08 19:12:09;;;;;;;0.80;0.30;;;30.10;45.80;;;;;;10963189;32;20041;-70
2022/07/08 19:18:16;;;;;;;0.85;0.45;;;30.00;46.10;;;;;;10962925;32;20315;-70
2022/07/08 19:24:52;;;;;;;0.50;0.50;;;29.90;46.20;;;;;;10964162;32;20387;-70
2022/07/08 19:30:54;;;;;;;0.40;0.40;;;29.80;46.40;;;;;;10975699;32;20053;-70
2022/07/08 19:36:57;;;;;;;0.50;0.30;;;29.70;46.70;;;;;;10962332;32;20026;-70
2022/07/08 19:42:59;;;;;;;1.92;0.70;;;29.60;47.00;;;;;;10975613;32;20350;-70
2022/07/08 19:49:01;;;;;;;0.85;0.43;;;29.60;47.30;;;;;;10961899;32;20026;-70
2022/07/08 19:55:27;;;;;;;1.17;0.85;;;29.40;47.40;;;;;;10962014;32;20399;-70
2022/07/08 20:01:51;;;;;;;8.50;1.17;;;29.40;47.70;;;;;;10961662;32;20019;-70
2022/07/08 20:07:53;;;;;;;0.47;0.40;;;29.30;47.90;;;;;;10974846;32;20127;-70
2022/07/08 20:13:55;;;;;;;1.02;0.60;;;29.30;48.10;;;;;;10975278;32;20323;-70
2022/07/08 20:20:01;;;;;;;0.40;0.40;;;29.20;48.40;;;;;;10961316;32;20053;-70
2022/07/08 20:26:03;;;;;;;0.50;0.50;;;29.10;49.00;;;;;;10974601;32;20409;-70
2022/07/08 20:32:06;;;;;;;2.62;0.55;;;29.10;49.20;;;;;;11009942;27;20038;-70
2022/07/08 20:38:08;;;;;;;1.75;0.98;;;29.10;49.30;;;;;;11012257;32;20041;-70
2022/07/08 20:44:11;;;;;;;0.60;0.45;;;29.00;49.90;;;;;;10998875;32;20022;-70
2022/07/08 20:50:39;;;;;;;0.30;0.30;;;29.00;50.40;;;;;;11012565;32;20048;-70
2022/07/08 20:56:41;;;;;;;0.77;0.60;;;28.90;51.10;;;;;;11013868;32;20026;-70
2022/07/08 21:02:44;;;;;;;1.25;0.70;;;28.80;51.80;;;;;;11005975;32;20038;-70
2022/07/08 21:08:46;;;;;;;3.22;0.40;;;28.80;51.90;;;;;;11019469;32;20034;-70
2022/07/08 21:14:48;;;;;;;1.30;0.60;;;28.80;51.90;;;;;;11019400;32;20060;-70
2022/07/08 21:20:50;;;;;;;2.40;0.90;;;28.80;52.00;;;;;;11005206;32;20038;-70
2022/07/08 21:26:53;;;;;;;1.12;0.50;;;28.70;52.10;;;;;;11005762;32;20030;-70
2022/07/08 21:32:55;;;;;;;2.80;0.60;;;28.60;52.30;;;;;;11018595;32;20084;-70
2022/07/08 21:38:57;;;;;;;0.95;0.60;;;28.50;52.50;;;;;;11018204;32;20061;-70
2022/07/08 21:44:59;;;;;;;1.02;0.60;;;28.40;52.80;;;;;;11017920;32;20034;-70
2022/07/08 21:51:02;;;;;;;0.57;0.40;;;28.30;53.00;;;;;;11017631;32;20027;-70
2022/07/08 21:57:04;;;;;;;1.27;0.73;;;28.20;53.20;;;;;;11003425;32;20373;-70
2022/07/08 22:03:06;;;;;;;0.90;0.82;;;28.10;53.30;;;;;;11017459;32;20026;-70
2022/07/08 22:09:09;;;;;;;0.70;0.40;;;28.00;53.60;;;;;;11002721;32;20018;-70
2022/07/08 22:15:11;;;;;;;0.55;0.50;;;27.80;53.90;;;;;;11017071;32;20026;-70
2022/07/08 22:21:13;;;;;;;0.62;0.60;;;27.80;54.10;;;;;;11016803;32;20056;-70
2022/07/08 22:27:15;;;;;;;0.95;0.40;;;27.70;54.20;;;;;;11016315;32;20084;-70
2022/07/08 22:33:17;;;;;;;0.30;0.30;;;27.60;54.40;;;;;;11002515;32;20022;-70
2022/07/08 22:39:19;;;;;;;1.48;0.70;;;27.60;54.50;;;;;;11016304;32;20030;-70
2022/07/08 22:45:21;;;;;;;6.03;0.68;;;27.60;54.50;;;;;;11015742;32;20030;-70
2022/07/08 22:51:23;;;;;;;0.95;0.73;;;27.60;54.50;;;;;;11015561;32;20410;-70
2022/07/08 22:57:25;;;;;;;1.05;0.77;;;27.50;54.80;;;;;;11015295;32;20057;-70
2022/07/08 23:03:28;;;;;;;1.25;0.85;;;27.50;55.20;;;;;;11015053;32;20034;-70
2022/07/08 23:09:30;;;;;;;1.27;0.75;;;27.40;55.30;;;;;;11014842;32;20030;-70
2022/07/08 23:15:32;;;;;;;2.60;0.93;;;27.30;55.60;;;;;;11014740;32;20030;-70
2022/07/08 23:21:34;;;;;;;1.52;0.93;;;27.30;55.80;;;;;;11014412;32;20342;-70
2022/07/08 23:27:37;;;;;;;1.77;1.08;;;27.30;56.40;;;;;;11000993;32;20357;-70
2022/07/08 23:33:39;;;;;;;0.95;0.62;;;27.30;56.80;;;;;;11014234;32;20044;-69
2022/07/08 23:39:41;;;;;;;0.68;0.65;;;27.30;56.70;;;;;;11013876;32;20034;-69
2022/07/08 23:45:43;;;;;;;2.55;1.25;;;27.30;56.90;;;;;;11013652;32;20038;-69
2022/07/08 23:51:51;;;;;;;7.07;1.75;;;27.20;56.90;;;;;;11013535;32;20092;-69
2022/07/08 23:58:09;;;;;;;1.37;0.90;;;27.10;56.90;;;;;;11011703;32;20048;-70
